sensor_id;sensor_type;location;lat;lon;timestamp;P1;durP1;ratioP1;P2;durP2;ratioP2
30048;SDS011;16879;50.852;15.602;2023-02-28T00:00:10;116.47;;;51.00;;
30048;SDS011;16879;50.852;15.602;2023-02-28T00:02:40;107.40;;;49.42;;
30048;SDS011;16879;50.852;15.602;2023-02-28T00:05:07;115.90;;;48.67;;
30048;SDS011;16879;50.852;15.602;2023-02-28T00:07:34;107.72;;;48.63;;
30048;SDS011;16879;50.852;15.602;2023-02-28T00:10:01;102.35;;;45.67;;
30048;SDS011;16879;50.852;15.602;2023-02-28T00:12:27;83.35;;;40.83;;
30048;SDS011;16879;50.852;15.602;2023-02-28T00:14:53;87.80;;;41.53;;
30048;SDS011;16879;50.852;15.602;2023-02-28T00:17:19;95.60;;;38.80;;
30048;SDS011;16879;50.852;15.602;2023-02-28T00:19:47;77.82;;;40.80;;
30048;SDS011;16879;50.852;15.602;2023-02-28T00:22:14;84.97;;;41.90;;
30048;SDS011;16879;50.852;15.602;2023-02-28T00:24:40;81.28;;;39.38;;
30048;SDS011;16879;50.852;15.602;2023-02-28T00:27:06;77.43;;;36.97;;
30048;SDS011;16879;50.852;15.602;2023-02-28T00:29:32;83.05;;;40.20;;
30048;SDS011;16879;50.852;15.602;2023-02-28T00:31:58;75.70;;;39.22;;
30048;SDS011;16879;50.852;15.602;2023-02-28T00:34:25;81.75;;;37.38;;
30048;SDS011;16879;50.852;15.602;2023-02-28T00:36:51;83.93;;;39.03;;
30048;SDS011;16879;50.852;15.602;2023-02-28T00:39:17;70.20;;;35.88;;
30048;SDS011;16879;50.852;15.602;2023-02-28T00:41:43;64.30;;;32.65;;
30048;SDS011;16879;50.852;15.602;2023-02-28T00:44:10;83.90;;;37.63;;
30048;SDS011;16879;50.852;15.602;2023-02-28T00:46:37;75.78;;;35.42;;
30048;SDS011;16879;50.852;15.602;2023-02-28T00:49:03;68.28;;;34.33;;
30048;SDS011;16879;50.852;15.602;2023-02-28T00:51:29;60.70;;;32.20;;
30048;SDS011;16879;50.852;15.602;2023-02-28T00:53:55;71.32;;;34.72;;
30048;SDS011;16879;50.852;15.602;2023-02-28T00:56:21;70.85;;;35.00;;
30048;SDS011;16879;50.852;15.602;2023-02-28T00:58:47;62.70;;;30.63;;
30048;SDS011;16879;50.852;15.602;2023-02-28T01:01:13;61.97;;;32.00;;
30048;SDS011;16879;50.852;15.602;2023-02-28T01:03:39;62.95;;;35.20;;
30048;SDS011;16879;50.852;15.602;2023-02-28T01:06:06;59.67;;;32.90;;
30048;SDS011;16879;50.852;15.602;2023-02-28T01:08:32;62.08;;;33.03;;
30048;SDS011;16879;50.852;15.602;2023-02-28T01:11:06;67.30;;;29.83;;
30048;SDS011;16879;50.852;15.602;2023-02-28T01:13:32;51.13;;;28.00;;
30048;SDS011;16879;50.852;15.602;2023-02-28T01:15:58;59.70;;;29.08;;
30048;SDS011;16879;50.852;15.602;2023-02-28T01:18:25;73.68;;;36.53;;
30048;SDS011;16879;50.852;15.602;2023-02-28T01:20:51;91.32;;;45.45;;
30048;SDS011;16879;50.852;15.602;2023-02-28T01:23:18;79.40;;;38.72;;
30048;SDS011;16879;50.852;15.602;2023-02-28T01:25:45;78.82;;;39.25;;
30048;SDS011;16879;50.852;15.602;2023-02-28T01:28:11;60.03;;;32.13;;
30048;SDS011;16879;50.852;15.602;2023-02-28T01:30:37;64.13;;;34.40;;
30048;SDS011;16879;50.852;15.602;2023-02-28T01:33:03;64.85;;;34.33;;
30048;SDS011;16879;50.852;15.602;2023-02-28T01:35:32;66.68;;;36.53;;
30048;SDS011;16879;50.852;15.602;2023-02-28T01:37:59;64.50;;;34.53;;
30048;SDS011;16879;50.852;15.602;2023-02-28T01:40:25;53.70;;;29.20;;
30048;SDS011;16879;50.852;15.602;2023-02-28T01:42:51;60.78;;;32.17;;
30048;SDS011;16879;50.852;15.602;2023-02-28T01:45:22;53.85;;;30.92;;
30048;SDS011;16879;50.852;15.602;2023-02-28T01:47:50;62.03;;;33.80;;
30048;SDS011;16879;50.852;15.602;2023-02-28T01:50:19;61.58;;;34.88;;
30048;SDS011;16879;50.852;15.602;2023-02-28T01:52:46;57.60;;;30.30;;
30048;SDS011;16879;50.852;15.602;2023-02-28T01:55:14;58.53;;;31.73;;
30048;SDS011;16879;50.852;15.602;2023-02-28T01:57:42;61.28;;;31.02;;
30048;SDS011;16879;50.852;15.602;2023-02-28T02:00:10;64.72;;;33.70;;
30048;SDS011;16879;50.852;15.602;2023-02-28T02:02:38;67.28;;;32.80;;
30048;SDS011;16879;50.852;15.602;2023-02-28T02:05:15;59.63;;;31.73;;
30048;SDS011;16879;50.852;15.602;2023-02-28T02:07:42;62.80;;;33.40;;
30048;SDS011;16879;50.852;15.602;2023-02-28T02:15:08;59.33;;;31.42;;
30048;SDS011;16879;50.852;15.602;2023-02-28T02:17:45;57.35;;;30.25;;
30048;SDS011;16879;50.852;15.602;2023-02-28T02:20:16;60.72;;;28.80;;
30048;SDS011;16879;50.852;15.602;2023-02-28T02:30:59;55.13;;;28.20;;
30048;SDS011;16879;50.852;15.602;2023-02-28T02:38:31;55.28;;;31.33;;
30048;SDS011;16879;50.852;15.602;2023-02-28T02:41:04;54.35;;;32.10;;
30048;SDS011;16879;50.852;15.602;2023-02-28T02:43:41;57.08;;;29.92;;
30048;SDS011;16879;50.852;15.602;2023-02-28T02:46:13;58.58;;;29.40;;
30048;SDS011;16879;50.852;15.602;2023-02-28T02:48:40;53.15;;;28.65;;
30048;SDS011;16879;50.852;15.602;2023-02-28T02:51:10;48.55;;;27.20;;
30048;SDS011;16879;50.852;15.602;2023-02-28T02:53:40;53.50;;;28.98;;
30048;SDS011;16879;50.852;15.602;2023-02-28T02:56:14;55.45;;;27.05;;
30048;SDS011;16879;50.852;15.602;2023-02-28T02:58:42;57.20;;;29.65;;
30048;SDS011;16879;50.852;15.602;2023-02-28T03:01:14;50.55;;;27.23;;
30048;SDS011;16879;50.852;15.602;2023-02-28T03:03:41;58.60;;;28.98;;
30048;SDS011;16879;50.852;15.602;2023-02-28T03:06:08;56.47;;;29.60;;
30048;SDS011;16879;50.852;15.602;2023-02-28T03:08:36;48.38;;;25.38;;
30048;SDS011;16879;50.852;15.602;2023-02-28T03:11:04;44.90;;;25.10;;
30048;SDS011;16879;50.852;15.602;2023-02-28T03:13:41;52.95;;;28.60;;
30048;SDS011;16879;50.852;15.602;2023-02-28T03:21:31;44.22;;;23.55;;
30048;SDS011;16879;50.852;15.602;2023-02-28T03:24:07;49.70;;;27.58;;
30048;SDS011;16879;50.852;15.602;2023-02-28T03:26:36;58.33;;;28.25;;
30048;SDS011;16879;50.852;15.602;2023-02-28T03:31:41;47.03;;;24.83;;
30048;SDS011;16879;50.852;15.602;2023-02-28T03:36:55;44.70;;;25.58;;
30048;SDS011;16879;50.852;15.602;2023-02-28T03:39:24;49.13;;;26.05;;
30048;SDS011;16879;50.852;15.602;2023-02-28T03:41:54;42.97;;;24.67;;
30048;SDS011;16879;50.852;15.602;2023-02-28T03:44:34;42.50;;;22.75;;
30048;SDS011;16879;50.852;15.602;2023-02-28T03:47:06;46.67;;;26.02;;
30048;SDS011;16879;50.852;15.602;2023-02-28T03:49:39;45.65;;;24.30;;
30048;SDS011;16879;50.852;15.602;2023-02-28T03:52:10;50.55;;;24.85;;
30048;SDS011;16879;50.852;15.602;2023-02-28T03:54:55;50.72;;;28.70;;
30048;SDS011;16879;50.852;15.602;2023-02-28T03:57:33;47.38;;;27.02;;
30048;SDS011;16879;50.852;15.602;2023-02-28T04:00:17;40.05;;;21.60;;
30048;SDS011;16879;50.852;15.602;2023-02-28T04:02:44;55.50;;;24.05;;
30048;SDS011;16879;50.852;15.602;2023-02-28T04:05:10;36.63;;;18.70;;
30048;SDS011;16879;50.852;15.602;2023-02-28T04:07:36;41.53;;;23.95;;
30048;SDS011;16879;50.852;15.602;2023-02-28T04:10:03;50.10;;;27.20;;
30048;SDS011;16879;50.852;15.602;2023-02-28T04:12:29;39.90;;;20.88;;
30048;SDS011;16879;50.852;15.602;2023-02-28T04:14:55;45.40;;;25.17;;
30048;SDS011;16879;50.852;15.602;2023-02-28T04:17:22;38.85;;;21.23;;
30048;SDS011;16879;50.852;15.602;2023-02-28T04:19:48;50.45;;;26.52;;
30048;SDS011;16879;50.852;15.602;2023-02-28T04:22:14;52.80;;;26.20;;
30048;SDS011;16879;50.852;15.602;2023-02-28T04:24:42;51.28;;;26.63;;
30048;SDS011;16879;50.852;15.602;2023-02-28T04:27:08;50.10;;;24.20;;
30048;SDS011;16879;50.852;15.602;2023-02-28T04:29:35;40.00;;;21.65;;
30048;SDS011;16879;50.852;15.602;2023-02-28T04:32:01;41.80;;;23.23;;
30048;SDS011;16879;50.852;15.602;2023-02-28T04:34:29;43.83;;;22.40;;
30048;SDS011;16879;50.852;15.602;2023-02-28T04:36:56;54.35;;;26.17;;
30048;SDS011;16879;50.852;15.602;2023-02-28T04:39:22;60.13;;;26.10;;
30048;SDS011;16879;50.852;15.602;2023-02-28T04:41:49;65.40;;;29.02;;
30048;SDS011;16879;50.852;15.602;2023-02-28T04:44:16;63.83;;;31.08;;
30048;SDS011;16879;50.852;15.602;2023-02-28T04:46:43;65.45;;;31.02;;
30048;SDS011;16879;50.852;15.602;2023-02-28T04:49:10;57.67;;;29.83;;
30048;SDS011;16879;50.852;15.602;2023-02-28T04:51:37;64.72;;;30.90;;
30048;SDS011;16879;50.852;15.602;2023-02-28T04:54:03;71.90;;;35.05;;
30048;SDS011;16879;50.852;15.602;2023-02-28T04:56:29;66.80;;;33.47;;
30048;SDS011;16879;50.852;15.602;2023-02-28T04:58:55;63.55;;;34.65;;
30048;SDS011;16879;50.852;15.602;2023-02-28T05:01:23;75.70;;;37.05;;
30048;SDS011;16879;50.852;15.602;2023-02-28T05:03:49;69.72;;;33.90;;
30048;SDS011;16879;50.852;15.602;2023-02-28T05:06:16;57.63;;;30.90;;
30048;SDS011;16879;50.852;15.602;2023-02-28T05:08:43;66.93;;;34.08;;
30048;SDS011;16879;50.852;15.602;2023-02-28T05:11:14;69.30;;;35.85;;
30048;SDS011;16879;50.852;15.602;2023-02-28T05:13:40;65.85;;;33.28;;
30048;SDS011;16879;50.852;15.602;2023-02-28T05:16:06;65.72;;;34.50;;
30048;SDS011;16879;50.852;15.602;2023-02-28T05:18:33;71.40;;;34.95;;
30048;SDS011;16879;50.852;15.602;2023-02-28T05:20:59;75.38;;;34.30;;
30048;SDS011;16879;50.852;15.602;2023-02-28T05:23:29;74.90;;;31.65;;
30048;SDS011;16879;50.852;15.602;2023-02-28T05:25:55;63.20;;;31.98;;
30048;SDS011;16879;50.852;15.602;2023-02-28T05:28:21;71.78;;;32.13;;
30048;SDS011;16879;50.852;15.602;2023-02-28T05:30:48;65.47;;;33.22;;
30048;SDS011;16879;50.852;15.602;2023-02-28T05:33:14;51.50;;;27.35;;
30048;SDS011;16879;50.852;15.602;2023-02-28T05:35:40;57.10;;;33.20;;
30048;SDS011;16879;50.852;15.602;2023-02-28T05:38:08;69.38;;;32.28;;
30048;SDS011;16879;50.852;15.602;2023-02-28T05:40:34;70.35;;;34.63;;
30048;SDS011;16879;50.852;15.602;2023-02-28T05:43:00;69.10;;;32.33;;
30048;SDS011;16879;50.852;15.602;2023-02-28T05:45:26;62.28;;;30.05;;
30048;SDS011;16879;50.852;15.602;2023-02-28T05:47:53;62.05;;;31.30;;
30048;SDS011;16879;50.852;15.602;2023-02-28T05:50:19;60.22;;;32.95;;
30048;SDS011;16879;50.852;15.602;2023-02-28T05:52:49;69.03;;;32.42;;
30048;SDS011;16879;50.852;15.602;2023-02-28T05:55:16;80.25;;;36.90;;
30048;SDS011;16879;50.852;15.602;2023-02-28T05:57:42;75.68;;;36.97;;
30048;SDS011;16879;50.852;15.602;2023-02-28T06:00:09;94.72;;;41.83;;
30048;SDS011;16879;50.852;15.602;2023-02-28T06:02:35;78.93;;;39.88;;
30048;SDS011;16879;50.852;15.602;2023-02-28T06:05:01;80.50;;;37.53;;
30048;SDS011;16879;50.852;15.602;2023-02-28T06:07:27;73.70;;;36.83;;
30048;SDS011;16879;50.852;15.602;2023-02-28T06:09:54;106.75;;;42.70;;
30048;SDS011;16879;50.852;15.602;2023-02-28T06:12:20;133.55;;;61.67;;
30048;SDS011;16879;50.852;15.602;2023-02-28T06:14:46;129.88;;;57.47;;
30048;SDS011;16879;50.852;15.602;2023-02-28T06:17:12;142.90;;;62.80;;
30048;SDS011;16879;50.852;15.602;2023-02-28T06:19:38;128.18;;;55.40;;
30048;SDS011;16879;50.852;15.602;2023-02-28T06:22:06;143.55;;;63.47;;
30048;SDS011;16879;50.852;15.602;2023-02-28T06:24:32;183.15;;;70.18;;
30048;SDS011;16879;50.852;15.602;2023-02-28T06:26:58;201.43;;;77.82;;
30048;SDS011;16879;50.852;15.602;2023-02-28T06:29:30;144.60;;;62.28;;
30048;SDS011;16879;50.852;15.602;2023-02-28T06:31:58;140.95;;;64.07;;
30048;SDS011;16879;50.852;15.602;2023-02-28T06:34:26;127.95;;;55.17;;
30048;SDS011;16879;50.852;15.602;2023-02-28T06:36:52;149.90;;;63.90;;
30048;SDS011;16879;50.852;15.602;2023-02-28T06:39:22;146.65;;;61.45;;
30048;SDS011;16879;50.852;15.602;2023-02-28T06:44:42;116.10;;;55.45;;
30048;SDS011;16879;50.852;15.602;2023-02-28T06:47:10;108.30;;;49.25;;
30048;SDS011;16879;50.852;15.602;2023-02-28T06:49:39;118.90;;;51.50;;
30048;SDS011;16879;50.852;15.602;2023-02-28T06:52:07;100.35;;;49.10;;
30048;SDS011;16879;50.852;15.602;2023-02-28T06:54:36;81.95;;;41.72;;
30048;SDS011;16879;50.852;15.602;2023-02-28T06:57:02;74.38;;;38.05;;
30048;SDS011;16879;50.852;15.602;2023-02-28T06:59:29;66.18;;;33.22;;
30048;SDS011;16879;50.852;15.602;2023-02-28T07:01:55;69.57;;;34.85;;
30048;SDS011;16879;50.852;15.602;2023-02-28T07:04:21;69.40;;;34.75;;
30048;SDS011;16879;50.852;15.602;2023-02-28T07:06:48;64.30;;;33.63;;
30048;SDS011;16879;50.852;15.602;2023-02-28T07:09:14;58.17;;;30.25;;
30048;SDS011;16879;50.852;15.602;2023-02-28T07:11:40;60.03;;;31.60;;
30048;SDS011;16879;50.852;15.602;2023-02-28T07:14:08;57.35;;;29.65;;
30048;SDS011;16879;50.852;15.602;2023-02-28T07:16:35;46.45;;;25.77;;
30048;SDS011;16879;50.852;15.602;2023-02-28T07:19:01;52.70;;;27.10;;
30048;SDS011;16879;50.852;15.602;2023-02-28T07:21:27;52.28;;;25.58;;
30048;SDS011;16879;50.852;15.602;2023-02-28T07:23:55;43.30;;;24.25;;
30048;SDS011;16879;50.852;15.602;2023-02-28T07:26:22;52.58;;;26.85;;
30048;SDS011;16879;50.852;15.602;2023-02-28T07:28:48;47.15;;;25.63;;
30048;SDS011;16879;50.852;15.602;2023-02-28T07:31:15;45.28;;;23.75;;
30048;SDS011;16879;50.852;15.602;2023-02-28T07:33:42;47.95;;;23.85;;
30048;SDS011;16879;50.852;15.602;2023-02-28T07:36:10;38.85;;;22.35;;
30048;SDS011;16879;50.852;15.602;2023-02-28T07:38:43;45.80;;;24.58;;
30048;SDS011;16879;50.852;15.602;2023-02-28T07:41:10;40.38;;;21.23;;
30048;SDS011;16879;50.852;15.602;2023-02-28T07:43:36;34.83;;;19.73;;
30048;SDS011;16879;50.852;15.602;2023-02-28T07:46:03;44.72;;;23.23;;
30048;SDS011;16879;50.852;15.602;2023-02-28T07:48:30;47.47;;;24.45;;
30048;SDS011;16879;50.852;15.602;2023-02-28T07:50:57;42.10;;;22.05;;
30048;SDS011;16879;50.852;15.602;2023-02-28T07:53:23;42.65;;;21.80;;
30048;SDS011;16879;50.852;15.602;2023-02-28T07:55:49;44.47;;;21.55;;
30048;SDS011;16879;50.852;15.602;2023-02-28T07:58:15;39.90;;;23.35;;
30048;SDS011;16879;50.852;15.602;2023-02-28T08:00:43;37.95;;;21.23;;
30048;SDS011;16879;50.852;15.602;2023-02-28T08:03:11;34.30;;;18.55;;
30048;SDS011;16879;50.852;15.602;2023-02-28T08:05:38;41.00;;;20.33;;
30048;SDS011;16879;50.852;15.602;2023-02-28T08:08:05;31.08;;;16.23;;
30048;SDS011;16879;50.852;15.602;2023-02-28T08:10:31;28.58;;;16.75;;
30048;SDS011;16879;50.852;15.602;2023-02-28T08:12:58;31.70;;;17.20;;
30048;SDS011;16879;50.852;15.602;2023-02-28T08:15:24;31.83;;;16.75;;
30048;SDS011;16879;50.852;15.602;2023-02-28T08:17:50;35.85;;;19.35;;
30048;SDS011;16879;50.852;15.602;2023-02-28T08:20:16;30.05;;;17.60;;
30048;SDS011;16879;50.852;15.602;2023-02-28T08:22:42;24.77;;;14.15;;
30048;SDS011;16879;50.852;15.602;2023-02-28T08:25:08;25.95;;;15.52;;
30048;SDS011;16879;50.852;15.602;2023-02-28T08:27:35;23.10;;;15.20;;
30048;SDS011;16879;50.852;15.602;2023-02-28T08:30:02;27.38;;;15.43;;
30048;SDS011;16879;50.852;15.602;2023-02-28T08:32:28;22.95;;;14.40;;
30048;SDS011;16879;50.852;15.602;2023-02-28T08:34:54;23.70;;;13.35;;
30048;SDS011;16879;50.852;15.602;2023-02-28T08:37:20;36.53;;;12.88;;
30048;SDS011;16879;50.852;15.602;2023-02-28T08:39:46;16.35;;;11.15;;
30048;SDS011;16879;50.852;15.602;2023-02-28T08:42:13;16.75;;;11.45;;
30048;SDS011;16879;50.852;15.602;2023-02-28T08:44:39;14.98;;;10.52;;
30048;SDS011;16879;50.852;15.602;2023-02-28T08:47:05;15.10;;;10.70;;
30048;SDS011;16879;50.852;15.602;2023-02-28T08:49:32;16.85;;;11.40;;
30048;SDS011;16879;50.852;15.602;2023-02-28T08:51:58;17.00;;;11.15;;
30048;SDS011;16879;50.852;15.602;2023-02-28T08:54:24;16.65;;;10.50;;
30048;SDS011;16879;50.852;15.602;2023-02-28T08:56:50;18.02;;;10.93;;
30048;SDS011;16879;50.852;15.602;2023-02-28T08:59:16;16.90;;;10.80;;
30048;SDS011;16879;50.852;15.602;2023-02-28T09:01:43;14.27;;;10.25;;
30048;SDS011;16879;50.852;15.602;2023-02-28T09:04:09;17.83;;;11.20;;
30048;SDS011;16879;50.852;15.602;2023-02-28T09:06:36;17.80;;;10.45;;
30048;SDS011;16879;50.852;15.602;2023-02-28T09:09:03;17.77;;;10.00;;
30048;SDS011;16879;50.852;15.602;2023-02-28T09:11:31;16.15;;;10.68;;
30048;SDS011;16879;50.852;15.602;2023-02-28T09:13:58;15.45;;;9.70;;
30048;SDS011;16879;50.852;15.602;2023-02-28T09:16:25;17.52;;;11.35;;
30048;SDS011;16879;50.852;15.602;2023-02-28T09:18:52;21.70;;;12.73;;
30048;SDS011;16879;50.852;15.602;2023-02-28T09:21:19;17.67;;;10.98;;
30048;SDS011;16879;50.852;15.602;2023-02-28T09:23:46;12.60;;;10.07;;
30048;SDS011;16879;50.852;15.602;2023-02-28T09:26:16;16.92;;;10.68;;
30048;SDS011;16879;50.852;15.602;2023-02-28T09:28:44;17.90;;;10.48;;
30048;SDS011;16879;50.852;15.602;2023-02-28T09:31:14;14.70;;;9.60;;
30048;SDS011;16879;50.852;15.602;2023-02-28T09:36:10;13.05;;;9.77;;
30048;SDS011;16879;50.852;15.602;2023-02-28T09:38:36;14.82;;;9.73;;
30048;SDS011;16879;50.852;15.602;2023-02-28T09:41:03;16.20;;;11.27;;
30048;SDS011;16879;50.852;15.602;2023-02-28T09:43:33;16.80;;;11.35;;
30048;SDS011;16879;50.852;15.602;2023-02-28T09:46:06;17.10;;;11.52;;
30048;SDS011;16879;50.852;15.602;2023-02-28T09:48:51;16.27;;;10.82;;
30048;SDS011;16879;50.852;15.602;2023-02-28T09:51:30;16.40;;;11.52;;
30048;SDS011;16879;50.852;15.602;2023-02-28T09:53:59;15.35;;;11.32;;
30048;SDS011;16879;50.852;15.602;2023-02-28T09:56:31;17.77;;;11.43;;
30048;SDS011;16879;50.852;15.602;2023-02-28T09:59:05;15.85;;;11.02;;
30048;SDS011;16879;50.852;15.602;2023-02-28T10:01:54;14.75;;;11.05;;
30048;SDS011;16879;50.852;15.602;2023-02-28T10:09:54;16.25;;;10.82;;
30048;SDS011;16879;50.852;15.602;2023-02-28T10:12:22;18.15;;;11.65;;
30048;SDS011;16879;50.852;15.602;2023-02-28T10:14:49;20.15;;;11.48;;
30048;SDS011;16879;50.852;15.602;2023-02-28T10:17:19;18.50;;;11.32;;
30048;SDS011;16879;50.852;15.602;2023-02-28T10:24:46;16.40;;;11.27;;
30048;SDS011;16879;50.852;15.602;2023-02-28T10:29:44;17.42;;;11.60;;
30048;SDS011;16879;50.852;15.602;2023-02-28T10:32:13;16.08;;;10.52;;
30048;SDS011;16879;50.852;15.602;2023-02-28T10:34:40;16.77;;;11.88;;
30048;SDS011;16879;50.852;15.602;2023-02-28T10:37:06;19.08;;;11.88;;
30048;SDS011;16879;50.852;15.602;2023-02-28T10:39:40;18.08;;;12.57;;
30048;SDS011;16879;50.852;15.602;2023-02-28T10:42:29;14.75;;;11.23;;
30048;SDS011;16879;50.852;15.602;2023-02-28T10:47:38;16.48;;;10.85;;
30048;SDS011;16879;50.852;15.602;2023-02-28T10:50:30;17.45;;;13.13;;
30048;SDS011;16879;50.852;15.602;2023-02-28T10:53:07;15.98;;;10.93;;
30048;SDS011;16879;50.852;15.602;2023-02-28T10:55:34;16.67;;;11.73;;
30048;SDS011;16879;50.852;15.602;2023-02-28T10:58:00;18.23;;;11.50;;
30048;SDS011;16879;50.852;15.602;2023-02-28T11:00:31;16.38;;;10.77;;
30048;SDS011;16879;50.852;15.602;2023-02-28T11:02:58;15.85;;;11.68;;
30048;SDS011;16879;50.852;15.602;2023-02-28T11:07:53;17.92;;;10.98;;
30048;SDS011;16879;50.852;15.602;2023-02-28T11:10:20;16.90;;;11.95;;
30048;SDS011;16879;50.852;15.602;2023-02-28T11:12:49;15.13;;;10.93;;
30048;SDS011;16879;50.852;15.602;2023-02-28T11:15:21;14.18;;;10.75;;
30048;SDS011;16879;50.852;15.602;2023-02-28T11:20:39;17.63;;;11.20;;
30048;SDS011;16879;50.852;15.602;2023-02-28T11:23:06;15.82;;;10.73;;
30048;SDS011;16879;50.852;15.602;2023-02-28T11:25:38;15.60;;;11.95;;
30048;SDS011;16879;50.852;15.602;2023-02-28T11:28:06;18.90;;;11.30;;
30048;SDS011;16879;50.852;15.602;2023-02-28T11:31:34;17.88;;;11.60;;
30048;SDS011;16879;50.852;15.602;2023-02-28T11:38:41;17.38;;;12.18;;
30048;SDS011;16879;50.852;15.602;2023-02-28T11:44:05;18.57;;;13.17;;
30048;SDS011;16879;50.852;15.602;2023-02-28T11:46:54;19.02;;;12.57;;
30048;SDS011;16879;50.852;15.602;2023-02-28T11:52:00;18.75;;;11.90;;
30048;SDS011;16879;50.852;15.602;2023-02-28T12:02:23;15.90;;;11.93;;
30048;SDS011;16879;50.852;15.602;2023-02-28T12:12:34;18.80;;;12.60;;
30048;SDS011;16879;50.852;15.602;2023-02-28T12:20:17;16.40;;;11.65;;
30048;SDS011;16879;50.852;15.602;2023-02-28T12:23:18;15.00;;;11.85;;
30048;SDS011;16879;50.852;15.602;2023-02-28T12:28:24;19.02;;;11.82;;
30048;SDS011;16879;50.852;15.602;2023-02-28T12:30:56;19.25;;;12.48;;
30048;SDS011;16879;50.852;15.602;2023-02-28T12:33:24;16.85;;;11.63;;
30048;SDS011;16879;50.852;15.602;2023-02-28T12:35:52;16.55;;;11.98;;
30048;SDS011;16879;50.852;15.602;2023-02-28T12:38:45;17.77;;;12.07;;
30048;SDS011;16879;50.852;15.602;2023-02-28T12:41:36;16.13;;;11.23;;
30048;SDS011;16879;50.852;15.602;2023-02-28T12:44:33;18.52;;;12.90;;
30048;SDS011;16879;50.852;15.602;2023-02-28T12:47:02;19.23;;;12.07;;
30048;SDS011;16879;50.852;15.602;2023-02-28T12:49:32;15.85;;;11.38;;
30048;SDS011;16879;50.852;15.602;2023-02-28T12:51:59;15.20;;;10.40;;
30048;SDS011;16879;50.852;15.602;2023-02-28T12:59:25;16.55;;;11.27;;
30048;SDS011;16879;50.852;15.602;2023-02-28T13:01:57;14.82;;;10.70;;
30048;SDS011;16879;50.852;15.602;2023-02-28T13:04:29;17.02;;;10.43;;
30048;SDS011;16879;50.852;15.602;2023-02-28T13:07:20;21.02;;;12.68;;
30048;SDS011;16879;50.852;15.602;2023-02-28T13:09:53;18.10;;;11.95;;
30048;SDS011;16879;50.852;15.602;2023-02-28T13:12:20;13.90;;;10.47;;
30048;SDS011;16879;50.852;15.602;2023-02-28T13:14:48;15.98;;;12.02;;
30048;SDS011;16879;50.852;15.602;2023-02-28T13:17:18;19.17;;;11.90;;
30048;SDS011;16879;50.852;15.602;2023-02-28T13:22:20;16.67;;;11.30;;
30048;SDS011;16879;50.852;15.602;2023-02-28T13:25:03;17.20;;;12.13;;
30048;SDS011;16879;50.852;15.602;2023-02-28T13:27:54;14.73;;;10.80;;
30048;SDS011;16879;50.852;15.602;2023-02-28T13:36:22;16.02;;;11.48;;
30048;SDS011;16879;50.852;15.602;2023-02-28T13:38:55;16.52;;;10.48;;
30048;SDS011;16879;50.852;15.602;2023-02-28T13:44:10;19.02;;;12.70;;
30048;SDS011;16879;50.852;15.602;2023-02-28T13:49:25;17.85;;;11.25;;
30048;SDS011;16879;50.852;15.602;2023-02-28T13:52:02;15.60;;;10.60;;
30048;SDS011;16879;50.852;15.602;2023-02-28T14:05:17;14.57;;;11.38;;
30048;SDS011;16879;50.852;15.602;2023-02-28T14:13:03;14.13;;;11.38;;
30048;SDS011;16879;50.852;15.602;2023-02-28T14:15:56;14.75;;;11.55;;
30048;SDS011;16879;50.852;15.602;2023-02-28T14:18:34;17.08;;;11.98;;
30048;SDS011;16879;50.852;15.602;2023-02-28T14:28:41;15.23;;;11.02;;
30048;SDS011;16879;50.852;15.602;2023-02-28T14:31:20;12.93;;;10.48;;
30048;SDS011;16879;50.852;15.602;2023-02-28T14:36:20;17.50;;;9.95;;
30048;SDS011;16879;50.852;15.602;2023-02-28T14:38:51;17.10;;;12.30;;
30048;SDS011;16879;50.852;15.602;2023-02-28T14:41:22;19.17;;;12.43;;
30048;SDS011;16879;50.852;15.602;2023-02-28T14:43:57;15.38;;;12.23;;
30048;SDS011;16879;50.852;15.602;2023-02-28T14:46:25;15.05;;;11.32;;
30048;SDS011;16879;50.852;15.602;2023-02-28T14:48:52;17.27;;;10.80;;
30048;SDS011;16879;50.852;15.602;2023-02-28T14:51:21;17.35;;;12.82;;
30048;SDS011;16879;50.852;15.602;2023-02-28T14:53:56;16.42;;;11.85;;
30048;SDS011;16879;50.852;15.602;2023-02-28T14:56:24;16.48;;;12.93;;
30048;SDS011;16879;50.852;15.602;2023-02-28T14:58:52;16.02;;;11.30;;
30048;SDS011;16879;50.852;15.602;2023-02-28T15:01:20;17.67;;;13.25;;
30048;SDS011;16879;50.852;15.602;2023-02-28T15:03:47;18.00;;;13.32;;
30048;SDS011;16879;50.852;15.602;2023-02-28T15:06:15;18.23;;;12.88;;
30048;SDS011;16879;50.852;15.602;2023-02-28T15:08:42;18.55;;;11.93;;
30048;SDS011;16879;50.852;15.602;2023-02-28T15:11:16;15.77;;;11.30;;
30048;SDS011;16879;50.852;15.602;2023-02-28T15:18:50;20.88;;;12.65;;
30048;SDS011;16879;50.852;15.602;2023-02-28T15:21:21;22.92;;;16.13;;
30048;SDS011;16879;50.852;15.602;2023-02-28T15:24:07;29.40;;;18.58;;
30048;SDS011;16879;50.852;15.602;2023-02-28T15:26:39;24.55;;;17.65;;
30048;SDS011;16879;50.852;15.602;2023-02-28T15:29:22;21.67;;;15.23;;
30048;SDS011;16879;50.852;15.602;2023-02-28T15:31:57;17.88;;;14.18;;
30048;SDS011;16879;50.852;15.602;2023-02-28T15:34:34;19.73;;;14.93;;
30048;SDS011;16879;50.852;15.602;2023-02-28T15:40:22;19.08;;;12.13;;
30048;SDS011;16879;50.852;15.602;2023-02-28T15:42:59;18.33;;;11.23;;
30048;SDS011;16879;50.852;15.602;2023-02-28T15:45:27;20.17;;;12.02;;
30048;SDS011;16879;50.852;15.602;2023-02-28T15:48:05;28.73;;;17.17;;
30048;SDS011;16879;50.852;15.602;2023-02-28T15:50:41;29.00;;;17.05;;
30048;SDS011;16879;50.852;15.602;2023-02-28T15:56:16;46.15;;;25.63;;
30048;SDS011;16879;50.852;15.602;2023-02-28T15:58:49;36.53;;;22.37;;
30048;SDS011;16879;50.852;15.602;2023-02-28T16:03:47;45.97;;;25.20;;
30048;SDS011;16879;50.852;15.602;2023-02-28T16:08:42;60.80;;;29.38;;
30048;SDS011;16879;50.852;15.602;2023-02-28T16:11:10;71.30;;;35.05;;
30048;SDS011;16879;50.852;15.602;2023-02-28T16:13:36;61.88;;;33.83;;
30048;SDS011;16879;50.852;15.602;2023-02-28T16:16:03;119.82;;;47.33;;
30048;SDS011;16879;50.852;15.602;2023-02-28T16:18:29;148.88;;;70.82;;
30048;SDS011;16879;50.852;15.602;2023-02-28T16:20:55;148.43;;;69.32;;
30048;SDS011;16879;50.852;15.602;2023-02-28T16:23:21;131.05;;;65.60;;
30048;SDS011;16879;50.852;15.602;2023-02-28T16:25:47;137.43;;;70.63;;
30048;SDS011;16879;50.852;15.602;2023-02-28T16:28:21;142.05;;;71.95;;
30048;SDS011;16879;50.852;15.602;2023-02-28T16:30:51;111.57;;;55.35;;
30048;SDS011;16879;50.852;15.602;2023-02-28T16:33:17;76.30;;;44.97;;
30048;SDS011;16879;50.852;15.602;2023-02-28T16:35:43;97.03;;;52.45;;
30048;SDS011;16879;50.852;15.602;2023-02-28T16:38:09;99.05;;;49.95;;
30048;SDS011;16879;50.852;15.602;2023-02-28T16:40:36;78.13;;;43.53;;
30048;SDS011;16879;50.852;15.602;2023-02-28T16:43:16;147.52;;;68.57;;
30048;SDS011;16879;50.852;15.602;2023-02-28T16:45:44;161.68;;;62.63;;
30048;SDS011;16879;50.852;15.602;2023-02-28T16:48:13;140.40;;;67.65;;
30048;SDS011;16879;50.852;15.602;2023-02-28T16:50:41;147.23;;;69.55;;